createdAt,value
2023-03-05T00:00:55.073Z,57.65
2023-03-05T00:03:21.828Z,57.76
2023-03-05T00:05:48.603Z,57.90
2023-03-05T00:08:15.358Z,58.05
2023-03-05T00:10:42.002Z,57.97
2023-03-05T00:13:08.665Z,57.99
2023-03-05T00:15:41.376Z,58.04
2023-03-05T00:18:08.333Z,58.31
2023-03-05T00:20:36.046Z,58.13
2023-03-05T00:23:02.812Z,58.38
2023-03-05T00:25:29.629Z,58.11
2023-03-05T00:27:56.276Z,58.23
2023-03-05T00:30:22.976Z,58.17
2023-03-05T00:32:49.724Z,58.30
2023-03-05T00:35:16.582Z,58.31
2023-03-05T00:37:43.264Z,58.48
2023-03-05T00:40:10.786Z,58.24
2023-03-05T00:42:38.754Z,58.26
2023-03-05T00:45:07.392Z,58.42
2023-03-05T00:47:34.758Z,58.07
2023-03-05T00:50:02.088Z,58.12
2023-03-05T00:52:29.235Z,58.31
2023-03-05T00:54:56.044Z,58.47
2023-03-05T00:57:22.891Z,58.55
2023-03-05T00:59:49.759Z,58.23
2023-03-05T01:02:16.426Z,58.34
2023-03-05T01:04:45.970Z,58.52
2023-03-05T01:07:13.517Z,58.64
2023-03-05T01:09:40.347Z,58.44
2023-03-05T01:12:07.503Z,58.54
2023-03-05T01:14:35.795Z,58.64
2023-03-05T01:17:03.260Z,58.55
2023-03-05T01:19:30.141Z,58.71
2023-03-05T01:21:56.942Z,58.90
2023-03-05T01:24:23.818Z,58.92
2023-03-05T01:26:50.725Z,58.83
2023-03-05T01:29:17.536Z,58.78
2023-03-05T01:31:44.616Z,58.83
2023-03-05T01:34:11.525Z,59.04
2023-03-05T01:36:38.505Z,59.01
2023-03-05T01:39:05.349Z,59.13
2023-03-05T01:41:33.842Z,58.93
2023-03-05T01:44:01.087Z,59.15
2023-03-05T01:46:32.312Z,58.98
2023-03-05T01:49:04.391Z,59.05
2023-03-05T01:51:40.740Z,59.17
2023-03-05T01:54:10.721Z,59.00
2023-03-05T01:56:39.648Z,59.02
2023-03-05T01:59:06.384Z,59.37
2023-03-05T02:01:41.091Z,59.12
2023-03-05T02:04:11.470Z,59.21
2023-03-05T02:06:40.308Z,59.19
2023-03-05T02:09:07.319Z,59.08
2023-03-05T02:11:35.084Z,59.40
2023-03-05T02:14:03.318Z,59.21
2023-03-05T02:16:36.020Z,59.22
2023-03-05T02:19:05.844Z,59.32
2023-03-05T02:21:39.870Z,59.36
2023-03-05T02:24:06.989Z,59.49
2023-03-05T02:26:33.850Z,59.42
2023-03-05T02:29:03.074Z,59.51
2023-03-05T02:31:31.148Z,59.42
2023-03-05T02:33:58.299Z,59.62
2023-03-05T02:36:26.175Z,59.71
2023-03-05T02:38:56.979Z,59.61
2023-03-05T02:41:24.765Z,59.58
2023-03-05T02:43:52.437Z,59.54
2023-03-05T02:46:22.392Z,59.57
2023-03-05T02:48:50.269Z,59.49
2023-03-05T02:51:17.571Z,59.64
2023-03-05T02:53:45.879Z,59.54
2023-03-05T02:56:13.034Z,59.43
2023-03-05T02:58:39.832Z,59.59
2023-03-05T03:01:06.582Z,59.46
2023-03-05T03:03:33.623Z,59.57
2023-03-05T03:06:00.381Z,59.54
2023-03-05T03:08:27.457Z,59.44
2023-03-05T03:10:56.426Z,59.64
2023-03-05T03:13:25.167Z,59.67
2023-03-05T03:16:01.825Z,59.54
2023-03-05T03:18:28.567Z,59.52
2023-03-05T03:20:55.240Z,59.55
2023-03-05T03:23:21.916Z,59.57
2023-03-05T03:25:48.670Z,59.59
2023-03-05T03:28:18.075Z,59.61
2023-03-05T03:30:44.966Z,59.41
2023-03-05T03:33:12.004Z,59.39
2023-03-05T03:35:39.109Z,59.59
2023-03-05T03:38:06.134Z,59.42
2023-03-05T03:40:32.956Z,59.49
2023-03-05T03:42:59.874Z,59.51
2023-03-05T03:45:26.574Z,59.63
2023-03-05T03:47:53.203Z,59.54
2023-03-05T03:50:21.626Z,59.54
2023-03-05T03:52:48.302Z,59.47
2023-03-05T03:55:15.033Z,59.57
2023-03-05T03:57:41.721Z,59.62
2023-03-05T04:00:10.985Z,59.62
2023-03-05T04:02:41.622Z,59.51
2023-03-05T04:05:08.864Z,59.50
2023-03-05T04:07:35.565Z,59.56
2023-03-05T04:10:02.498Z,59.62
2023-03-05T04:12:29.120Z,59.82
2023-03-05T04:14:55.976Z,59.72
2023-03-05T04:17:22.729Z,59.61
2023-03-05T04:19:49.448Z,59.64
2023-03-05T04:22:17.686Z,59.58
2023-03-05T04:24:44.738Z,59.60
2023-03-05T04:27:11.619Z,59.69
2023-03-05T04:29:38.785Z,59.73
2023-03-05T04:32:06.620Z,59.83
2023-03-05T04:34:33.674Z,59.79
2023-03-05T04:37:00.514Z,59.88
2023-03-05T04:39:27.572Z,59.92
2023-03-05T04:41:54.419Z,59.89
2023-03-05T04:44:23.273Z,59.68
2023-03-05T04:46:50.162Z,60.16
2023-03-05T04:49:16.903Z,59.78
2023-03-05T04:51:43.623Z,59.72
2023-03-05T04:54:10.436Z,59.64
2023-03-05T04:56:37.309Z,59.68
2023-03-05T04:59:04.276Z,60.14
2023-03-05T05:01:31.061Z,60.05
2023-03-05T05:03:57.650Z,60.11
2023-03-05T05:06:24.320Z,60.13
2023-03-05T05:08:50.955Z,60.11
2023-03-05T05:11:18.166Z,59.93
2023-03-05T05:13:44.816Z,59.93
2023-03-05T05:16:11.815Z,59.96
2023-03-05T05:18:38.452Z,60.06
2023-03-05T05:21:13.358Z,60.16
2023-03-05T05:23:40.406Z,59.99
2023-03-05T05:26:08.644Z,60.13
2023-03-05T05:28:35.942Z,60.14
2023-03-05T05:31:07.764Z,60.15
2023-03-05T05:33:34.656Z,60.25
2023-03-05T05:36:06.394Z,60.08
2023-03-05T05:38:33.793Z,60.11
2023-03-05T05:41:10.428Z,60.19
2023-03-05T05:43:37.388Z,60.27
2023-03-05T05:46:06.795Z,59.94
2023-03-05T05:48:34.447Z,60.27
2023-03-05T05:51:09.128Z,60.40
2023-03-05T05:53:36.507Z,60.43
2023-03-05T05:56:07.498Z,60.12
2023-03-05T05:58:34.517Z,60.20
2023-03-05T06:01:01.454Z,60.18
2023-03-05T06:03:28.454Z,60.14
2023-03-05T06:05:55.715Z,60.12
2023-03-05T06:08:22.409Z,60.16
2023-03-05T06:10:55.457Z,60.35
2023-03-05T06:13:22.291Z,60.16
2023-03-05T06:15:57.462Z,60.19
2023-03-05T06:18:24.460Z,60.36
2023-03-05T06:21:02.648Z,60.32
2023-03-05T06:23:29.402Z,60.22
2023-03-05T06:25:59.441Z,60.24
2023-03-05T06:28:27.676Z,60.25
2023-03-05T06:31:05.657Z,60.37
2023-03-05T06:33:35.017Z,60.48
2023-03-05T06:36:09.488Z,60.41
2023-03-05T06:38:36.973Z,60.54
2023-03-05T06:41:25.251Z,60.48
2023-03-05T06:43:52.192Z,60.37
2023-03-05T06:46:19.851Z,60.55
2023-03-05T06:48:47.729Z,60.54
2023-03-05T06:51:23.187Z,60.32
2023-03-05T06:53:50.448Z,60.33
2023-03-05T06:56:18.993Z,60.34
2023-03-05T06:58:47.661Z,60.26
2023-03-05T07:01:15.496Z,60.44
2023-03-05T07:03:42.872Z,60.38
2023-03-05T07:06:12.592Z,60.43
2023-03-05T07:08:39.556Z,60.46
2023-03-05T07:11:20.619Z,60.21
2023-03-05T07:13:48.320Z,60.30
2023-03-05T07:16:20.841Z,59.95
2023-03-05T07:18:48.507Z,60.49
2023-03-05T07:21:21.004Z,60.76
2023-03-05T07:23:48.773Z,60.83
2023-03-05T07:26:15.952Z,60.56
2023-03-05T07:28:43.461Z,60.55
2023-03-05T07:31:19.780Z,60.39
2023-03-05T07:33:48.730Z,60.46
2023-03-05T07:36:17.200Z,60.34
2023-03-05T07:38:43.952Z,60.33
2023-03-05T07:41:19.884Z,60.25
2023-03-05T07:43:48.384Z,60.31
2023-03-05T07:46:20.294Z,60.35
2023-03-05T07:48:47.590Z,60.20
2023-03-05T07:51:19.737Z,59.97
2023-03-05T07:53:48.189Z,60.16
2023-03-05T07:56:20.572Z,60.04
2023-03-05T07:58:47.292Z,60.00
2023-03-05T08:01:15.191Z,60.13
2023-03-05T08:03:45.795Z,60.08
2023-03-05T08:06:12.935Z,60.10
2023-03-05T08:08:39.812Z,59.94
2023-03-05T08:11:11.731Z,60.01
2023-03-05T08:13:39.469Z,60.10
2023-03-05T08:16:14.702Z,60.07
2023-03-05T08:18:42.021Z,60.10
2023-03-05T08:21:19.386Z,59.95
2023-03-05T08:23:46.214Z,59.83
2023-03-05T08:26:19.180Z,59.88
2023-03-05T08:28:46.225Z,59.91
2023-03-05T08:31:14.551Z,59.83
2023-03-05T08:33:41.535Z,59.94
2023-03-05T08:36:09.535Z,59.91
2023-03-05T08:38:36.555Z,59.59
2023-03-05T08:41:04.147Z,59.62
2023-03-05T08:43:31.363Z,59.63
2023-03-05T08:46:00.209Z,59.72
2023-03-05T08:48:28.255Z,59.83
2023-03-05T08:50:56.357Z,59.70
2023-03-05T08:53:23.242Z,59.66
2023-03-05T08:55:57.083Z,59.55
2023-03-05T08:58:24.415Z,59.62
2023-03-05T09:00:51.302Z,59.66
2023-03-05T09:03:18.827Z,59.72
2023-03-05T09:05:45.857Z,59.76
2023-03-05T09:08:12.619Z,59.85
2023-03-05T09:10:42.098Z,59.66
2023-03-05T09:13:09.664Z,59.69
2023-03-05T09:15:37.069Z,59.73
2023-03-05T09:18:04.095Z,59.76
2023-03-05T09:20:30.964Z,59.66
2023-03-05T09:22:57.692Z,59.79
2023-03-05T09:25:24.453Z,59.73
2023-03-05T09:27:51.138Z,59.57
2023-03-05T09:30:18.051Z,59.65
2023-03-05T09:32:44.862Z,59.66
2023-03-05T09:35:11.977Z,59.71
2023-03-05T09:37:38.959Z,59.82
2023-03-05T09:40:06.216Z,59.79
2023-03-05T09:42:38.564Z,59.74
2023-03-05T09:45:30.077Z,59.87
2023-03-05T09:47:59.442Z,59.75
2023-03-05T09:51:01.350Z,59.86
2023-03-05T09:53:38.879Z,59.81
2023-03-05T09:56:12.747Z,59.83
2023-03-05T09:58:39.654Z,59.63
2023-03-05T10:01:10.493Z,59.60
2023-03-05T10:03:50.109Z,59.83
2023-03-05T10:06:55.745Z,59.75
2023-03-05T10:09:54.365Z,59.75
2023-03-05T10:12:43.880Z,59.53
2023-03-05T10:15:16.521Z,59.66
2023-03-05T10:18:07.520Z,59.55
2023-03-05T10:20:42.005Z,59.68
2023-03-05T10:23:08.748Z,59.53
2023-03-05T10:25:54.799Z,59.66
2023-03-05T10:28:55.252Z,59.52
2023-03-05T10:31:35.231Z,59.49
2023-03-05T10:34:27.991Z,59.08
2023-03-05T10:37:21.057Z,59.10
2023-03-05T10:40:00.660Z,58.86
2023-03-05T10:42:49.509Z,58.38
2023-03-05T10:45:24.538Z,58.00
2023-03-05T10:48:12.711Z,57.78
2023-03-05T10:50:46.360Z,57.59
2023-03-05T10:53:31.635Z,57.25
2023-03-05T10:56:01.793Z,57.23
2023-03-05T10:58:28.683Z,56.83
2023-03-05T11:01:10.149Z,56.82
2023-03-05T11:03:53.535Z,56.78
2023-03-05T11:06:34.230Z,56.47
2023-03-05T11:09:32.618Z,56.42
2023-03-05T11:12:14.306Z,56.34
2023-03-05T11:14:45.645Z,55.90
2023-03-05T11:17:30.718Z,55.80
2023-03-05T11:20:18.308Z,55.79
2023-03-05T11:23:02.037Z,55.55
2023-03-05T11:25:28.847Z,55.46
2023-03-05T11:27:57.173Z,55.62
2023-03-05T11:30:32.729Z,55.69
2023-03-05T11:33:22.596Z,55.22
2023-03-05T11:35:51.380Z,55.16
2023-03-05T11:38:26.038Z,55.46
2023-03-05T11:40:55.495Z,55.28
2023-03-05T11:43:23.757Z,55.16
2023-03-05T11:46:03.115Z,55.17
2023-03-05T11:48:36.066Z,54.99
2023-03-05T11:51:20.682Z,55.17
2023-03-05T11:53:51.612Z,55.26
2023-03-05T11:56:26.915Z,55.36
2023-03-05T11:59:12.433Z,55.28
2023-03-05T12:01:59.876Z,55.09
2023-03-05T12:04:28.025Z,55.19
2023-03-05T12:07:00.543Z,55.11
2023-03-05T12:09:27.213Z,55.01
2023-03-05T12:12:09.667Z,54.93
2023-03-05T12:14:49.061Z,55.21
2023-03-05T12:17:31.607Z,55.04
2023-03-05T12:20:13.421Z,55.12
2023-03-05T12:22:42.483Z,55.04
2023-03-05T12:25:27.426Z,55.15
2023-03-05T12:27:54.279Z,55.16
2023-03-05T12:30:35.949Z,55.11
2023-03-05T12:33:04.099Z,54.99
2023-03-05T12:35:41.181Z,55.03
2023-03-05T12:38:39.246Z,55.05
2023-03-05T12:41:25.817Z,54.65
2023-03-05T12:44:06.337Z,54.85
2023-03-05T12:46:38.903Z,54.59
2023-03-05T12:49:27.038Z,55.35
2023-03-05T12:51:56.248Z,55.18
2023-03-05T12:54:39.680Z,55.02
2023-03-05T12:57:16.625Z,54.67
2023-03-05T12:59:51.348Z,55.00
2023-03-05T13:02:40.820Z,54.26
2023-03-05T13:05:33.239Z,54.61
2023-03-05T13:08:18.471Z,54.49
2023-03-05T13:10:52.738Z,54.54
2023-03-05T13:13:21.491Z,54.41
2023-03-05T13:15:50.678Z,54.23
2023-03-05T13:18:23.351Z,54.52
2023-03-05T13:21:04.703Z,54.43
2023-03-05T13:23:32.535Z,54.09
2023-03-05T13:26:03.831Z,53.90
2023-03-05T13:28:32.248Z,54.16
2023-03-05T13:31:02.633Z,54.12
2023-03-05T13:33:35.189Z,54.07
2023-03-05T13:36:02.894Z,54.34
2023-03-05T13:38:57.153Z,54.11
2023-03-05T13:41:26.150Z,54.17
2023-03-05T13:43:57.627Z,54.04
2023-03-05T13:46:24.270Z,53.85
2023-03-05T13:48:51.109Z,53.86
2023-03-05T13:51:17.849Z,53.83
2023-03-05T13:53:44.956Z,53.88
2023-03-05T13:56:17.766Z,53.88
2023-03-05T13:58:55.914Z,53.78
2023-03-05T14:01:44.072Z,53.92
2023-03-05T14:04:13.608Z,53.63
2023-03-05T14:06:54.921Z,54.15
2023-03-05T14:09:33.104Z,53.98
2023-03-05T14:12:07.325Z,53.81
2023-03-05T14:14:37.591Z,53.59
2023-03-05T14:17:39.971Z,53.92
2023-03-05T14:20:06.593Z,54.01
2023-03-05T14:22:36.468Z,54.01
2023-03-05T14:25:25.613Z,53.99
2023-03-05T14:27:52.664Z,54.14
2023-03-05T14:30:22.148Z,54.05
2023-03-05T14:32:50.140Z,54.49
2023-03-05T14:35:19.792Z,54.28
2023-03-05T14:37:49.682Z,54.21
2023-03-05T14:40:23.677Z,54.25
2023-03-05T14:42:57.467Z,54.44
2023-03-05T14:45:36.182Z,54.22
2023-03-05T14:48:04.885Z,54.37
2023-03-05T14:50:38.125Z,54.33
2023-03-05T14:53:10.745Z,54.33
2023-03-05T14:55:38.539Z,54.00
2023-03-05T14:58:13.254Z,54.26
2023-03-05T15:00:40.410Z,54.04
2023-03-05T15:03:07.608Z,54.21
2023-03-05T15:05:34.453Z,53.97
2023-03-05T15:08:01.254Z,54.35
2023-03-05T15:10:28.016Z,54.43
2023-03-05T15:12:54.587Z,54.27
2023-03-05T15:15:22.980Z,54.19
2023-03-05T15:17:57.491Z,54.20
2023-03-05T15:20:29.032Z,53.93
2023-03-05T15:22:56.213Z,53.86
2023-03-05T15:25:25.592Z,53.88
2023-03-05T15:27:52.680Z,54.10
2023-03-05T15:30:25.217Z,54.19
2023-03-05T15:32:54.305Z,54.00
2023-03-05T15:35:22.086Z,53.95
2023-03-05T15:37:48.920Z,54.00
2023-03-05T15:40:16.315Z,54.04
2023-03-05T15:42:43.079Z,53.85
2023-03-05T15:45:10.125Z,53.89
2023-03-05T15:47:36.876Z,53.70
2023-03-05T15:50:03.797Z,53.68
2023-03-05T15:52:30.571Z,53.67
2023-03-05T15:54:57.227Z,53.94
2023-03-05T15:57:24.022Z,53.81
2023-03-05T15:59:50.705Z,53.74
2023-03-05T16:02:17.455Z,53.76
2023-03-05T16:04:44.334Z,53.60
2023-03-05T16:07:11.614Z,53.67
2023-03-05T16:09:46.392Z,53.97
2023-03-05T16:12:18.474Z,53.81
2023-03-05T16:14:46.063Z,53.93
2023-03-05T16:17:13.813Z,53.75
2023-03-05T16:19:44.419Z,53.75
2023-03-05T16:22:11.241Z,53.85
2023-03-05T16:24:38.290Z,53.65
2023-03-05T16:27:05.219Z,53.66
2023-03-05T16:29:32.978Z,53.77
2023-03-05T16:32:02.655Z,53.80
2023-03-05T16:34:29.417Z,53.57
2023-03-05T16:36:56.135Z,53.52
2023-03-05T16:39:23.151Z,53.52
2023-03-05T16:41:50.482Z,53.63
2023-03-05T16:44:17.299Z,53.35
2023-03-05T16:46:49.219Z,53.56
2023-03-05T16:49:16.805Z,53.77
2023-03-05T16:51:43.425Z,53.54
2023-03-05T16:54:10.348Z,53.67
2023-03-05T16:56:37.380Z,53.63
2023-03-05T16:59:04.606Z,53.65
2023-03-05T17:01:31.816Z,53.44
2023-03-05T17:04:00.093Z,53.56
2023-03-05T17:06:29.298Z,53.65
2023-03-05T17:08:56.714Z,53.73
2023-03-05T17:11:25.698Z,53.69
2023-03-05T17:13:52.681Z,53.91
2023-03-05T17:16:20.414Z,53.70
2023-03-05T17:18:47.952Z,53.67
2023-03-05T17:21:15.561Z,53.72
2023-03-05T17:23:42.824Z,53.64
2023-03-05T17:26:13.008Z,53.64
2023-03-05T17:28:40.100Z,53.74
2023-03-05T17:31:06.793Z,53.66
2023-03-05T17:33:35.241Z,53.84
2023-03-05T17:36:02.570Z,53.78
2023-03-05T17:38:29.716Z,53.90
2023-03-05T17:40:56.683Z,53.74
2023-03-05T17:43:23.786Z,53.75
2023-03-05T17:45:50.689Z,53.77
2023-03-05T17:48:17.631Z,53.88
2023-03-05T17:50:45.153Z,53.78
2023-03-05T17:53:12.494Z,53.77
2023-03-05T17:55:40.023Z,53.97
2023-03-05T17:58:06.682Z,53.83
2023-03-05T18:00:33.754Z,53.52
2023-03-05T18:03:00.590Z,53.65
2023-03-05T18:05:28.559Z,53.48
2023-03-05T18:07:55.948Z,53.42
2023-03-05T18:10:24.958Z,53.69
2023-03-05T18:12:52.150Z,53.58
2023-03-05T18:15:20.307Z,53.77
2023-03-05T18:17:47.193Z,53.61
2023-03-05T18:20:30.028Z,53.54
2023-03-05T18:22:58.546Z,53.58
2023-03-05T18:25:31.068Z,53.88
2023-03-05T18:28:02.678Z,53.58
2023-03-05T18:30:29.951Z,53.65
2023-03-05T18:32:56.673Z,53.97
2023-03-05T18:35:24.442Z,53.86
2023-03-05T18:37:51.553Z,53.90
2023-03-05T18:40:21.958Z,53.77
2023-03-05T18:42:49.769Z,53.75
2023-03-05T18:45:18.602Z,53.72
2023-03-05T18:47:46.872Z,53.96
2023-03-05T18:50:18.475Z,54.04
2023-03-05T18:52:45.770Z,53.97
2023-03-05T18:55:17.542Z,53.68
2023-03-05T18:57:44.322Z,53.72
2023-03-05T19:00:15.988Z,53.66
2023-03-05T19:02:42.814Z,53.89
2023-03-05T19:05:10.213Z,53.72
2023-03-05T19:07:38.067Z,53.69
2023-03-05T19:10:07.555Z,53.87
2023-03-05T19:12:35.290Z,53.73
2023-03-05T19:15:22.558Z,53.64
2023-03-05T19:17:49.687Z,53.76
2023-03-05T19:20:17.463Z,53.81
2023-03-05T19:22:58.628Z,53.62
2023-03-05T19:25:25.584Z,53.80
2023-03-05T19:27:52.686Z,53.79
2023-03-05T19:30:19.844Z,53.40
2023-03-05T19:32:47.243Z,53.51
2023-03-05T19:35:16.375Z,53.68
2023-03-05T19:37:45.879Z,53.57
2023-03-05T19:40:14.321Z,53.94
2023-03-05T19:42:41.063Z,53.60
2023-03-05T19:45:08.725Z,53.65
2023-03-05T19:47:35.781Z,53.65
2023-03-05T19:50:02.848Z,53.74
2023-03-05T19:52:30.212Z,53.97
2023-03-05T19:54:57.046Z,53.67
2023-03-05T19:57:23.936Z,53.62
2023-03-05T19:59:53.979Z,53.61
2023-03-05T20:02:21.902Z,53.72
2023-03-05T20:04:49.473Z,53.84
2023-03-05T20:07:16.347Z,53.80
2023-03-05T20:09:43.077Z,53.77
2023-03-05T20:12:10.394Z,53.64
2023-03-05T20:14:37.474Z,53.73
2023-03-05T20:17:04.303Z,53.62
2023-03-05T20:19:30.941Z,53.67
2023-03-05T20:21:57.640Z,53.67
2023-03-05T20:24:24.493Z,53.77
2023-03-05T20:26:51.387Z,53.49
2023-03-05T20:29:18.867Z,53.73
2023-03-05T20:31:47.026Z,53.70
2023-03-05T20:34:16.965Z,53.86
2023-03-05T20:36:44.100Z,53.75
2023-03-05T20:39:10.932Z,53.82
2023-03-05T20:41:39.597Z,53.92
2023-03-05T20:44:07.702Z,53.83
2023-03-05T20:46:39.425Z,53.66
2023-03-05T20:49:26.598Z,53.76
2023-03-05T20:51:53.743Z,53.74
2023-03-05T20:54:20.702Z,53.83
2023-03-05T20:56:47.897Z,53.68
2023-03-05T20:59:14.726Z,53.88
2023-03-05T21:01:41.719Z,53.69
2023-03-05T21:04:08.933Z,53.79
2023-03-05T21:06:36.980Z,53.64
2023-03-05T21:09:04.063Z,53.63
2023-03-05T21:11:31.915Z,53.67
2023-03-05T21:13:59.315Z,53.76
2023-03-05T21:16:27.238Z,53.87
2023-03-05T21:18:56.027Z,53.71
2023-03-05T21:21:23.496Z,54.00
2023-03-05T21:23:50.343Z,53.70
2023-03-05T21:26:17.239Z,53.79
2023-03-05T21:28:44.025Z,53.93
2023-03-05T21:31:16.989Z,53.74
2023-03-05T21:33:44.323Z,53.69
2023-03-05T21:36:11.086Z,53.66
2023-03-05T21:38:37.886Z,53.84
2023-03-05T21:41:05.405Z,53.75
2023-03-05T21:43:33.322Z,53.80
2023-03-05T21:46:02.100Z,54.05
2023-03-05T21:48:29.451Z,53.87
2023-03-05T21:50:57.223Z,53.84
2023-03-05T21:53:24.200Z,53.99
2023-03-05T21:56:31.040Z,53.71
2023-03-05T21:58:57.936Z,53.81
2023-03-05T22:01:24.957Z,53.79
2023-03-05T22:03:52.150Z,53.86
2023-03-05T22:06:19.827Z,54.16
2023-03-05T22:08:47.316Z,53.59
2023-03-05T22:11:17.393Z,53.66
2023-03-05T22:13:44.143Z,53.60
2023-03-05T22:16:11.049Z,53.72
2023-03-05T22:18:38.004Z,53.60
2023-03-05T22:21:05.727Z,53.76
2023-03-05T22:23:34.597Z,53.70
2023-03-05T22:26:04.428Z,53.77
2023-03-05T22:28:32.580Z,53.73
2023-03-05T22:30:59.437Z,53.76
2023-03-05T22:33:27.485Z,53.50
2023-03-05T22:35:54.328Z,53.74
2023-03-05T22:38:21.977Z,53.71
2023-03-05T22:40:50.224Z,53.49
2023-03-05T22:43:18.318Z,53.67
2023-03-05T22:45:45.387Z,53.40
2023-03-05T22:48:12.734Z,53.34
2023-03-05T22:50:41.132Z,53.60
2023-03-05T22:53:08.351Z,53.83
2023-03-05T22:55:39.376Z,53.53
2023-03-05T22:58:06.042Z,53.48
2023-03-05T23:00:32.867Z,53.62
2023-03-05T23:02:59.790Z,53.65
2023-03-05T23:05:26.714Z,53.56
2023-03-05T23:07:53.529Z,53.83
2023-03-05T23:10:25.627Z,54.05
2023-03-05T23:12:54.793Z,54.18
2023-03-05T23:15:39.548Z,54.21
2023-03-05T23:18:09.320Z,54.61
2023-03-05T23:20:37.358Z,54.44
2023-03-05T23:23:04.527Z,54.68
2023-03-05T23:25:33.039Z,54.71
2023-03-05T23:28:00.794Z,55.15
2023-03-05T23:30:37.138Z,55.35
2023-03-05T23:33:05.927Z,55.35
2023-03-05T23:35:36.106Z,55.43
2023-03-05T23:38:06.727Z,55.83
2023-03-05T23:40:36.544Z,55.57
2023-03-05T23:43:04.008Z,55.78
2023-03-05T23:45:31.396Z,56.07
2023-03-05T23:47:58.588Z,56.07
2023-03-05T23:50:31.859Z,56.41
2023-03-05T23:53:01.869Z,56.62
2023-03-05T23:55:42.857Z,56.54
2023-03-05T23:58:10.764Z,56.60
